sensor_id;sensor_type;location;lat;lon;timestamp;pressure;altitude;pressure_sealevel;temperature;humidity
70488;BME280;57976;48.174;16.370;2022-07-23T01:00:33;99063.96;;;27.54;50.39
70488;BME280;57976;48.174;16.370;2022-07-23T01:02:36;99066.88;;;27.49;51.36
70488;BME280;57976;48.174;16.370;2022-07-23T01:04:38;99065.31;;;27.45;51.75
70488;BME280;57976;48.174;16.370;2022-07-23T01:06:41;99060.86;;;27.40;52.13
70488;BME280;57976;48.174;16.370;2022-07-23T01:08:45;99054.98;;;27.35;52.37
70488;BME280;57976;48.174;16.370;2022-07-23T01:10:49;99049.56;;;27.30;52.58
70488;BME280;57976;48.174;16.370;2022-07-23T01:12:52;99042.77;;;27.24;52.73
70488;BME280;57976;48.174;16.370;2022-07-23T01:14:56;99044.31;;;27.22;52.94
70488;BME280;57976;48.174;16.370;2022-07-23T01:16:59;99047.48;;;27.20;52.96
70488;BME280;57976;48.174;16.370;2022-07-23T01:19:01;99050.48;;;27.19;53.09
70488;BME280;57976;48.174;16.370;2022-07-23T01:21:06;99053.30;;;27.16;53.19
70488;BME280;57976;48.174;16.370;2022-07-23T01:23:11;99061.66;;;27.13;53.24
70488;BME280;57976;48.174;16.370;2022-07-23T01:25:18;99062.08;;;27.07;53.46
70488;BME280;57976;48.174;16.370;2022-07-23T01:27:29;99059.02;;;26.98;53.43
70488;BME280;57976;48.174;16.370;2022-07-23T01:29:35;99059.73;;;26.85;53.55
70488;BME280;57976;48.174;16.370;2022-07-23T01:31:43;99069.27;;;26.72;53.87
70488;BME280;57976;48.174;16.370;2022-07-23T01:33:47;99089.50;;;26.65;53.87
70488;BME280;57976;48.174;16.370;2022-07-23T01:35:50;99108.63;;;26.57;54.11
70488;BME280;57976;48.174;16.370;2022-07-23T01:37:57;99123.33;;;26.49;54.36
70488;BME280;57976;48.174;16.370;2022-07-23T01:40:00;99121.92;;;26.40;54.81
70488;BME280;57976;48.174;16.370;2022-07-23T01:42:05;99109.63;;;26.33;55.11
70488;BME280;57976;48.174;16.370;2022-07-23T01:44:09;99111.05;;;26.28;55.46
70488;BME280;57976;48.174;16.370;2022-07-23T01:46:14;99105.59;;;26.27;55.93
70488;BME280;57976;48.174;16.370;2022-07-23T01:48:20;99101.55;;;26.24;56.37
70488;BME280;57976;48.174;16.370;2022-07-23T01:50:43;99094.23;;;26.21;56.65
70488;BME280;57976;48.174;16.370;2022-07-23T01:52:56;99091.41;;;26.20;56.98
70488;BME280;57976;48.174;16.370;2022-07-23T01:54:59;99091.14;;;26.18;56.90
70488;BME280;57976;48.174;16.370;2022-07-23T01:57:02;99087.97;;;26.16;57.76
70488;BME280;57976;48.174;16.370;2022-07-23T01:59:05;99085.95;;;26.11;57.79
70488;BME280;57976;48.174;16.370;2022-07-23T02:01:07;99074.23;;;26.06;57.92
70488;BME280;57976;48.174;16.370;2022-07-23T02:03:10;99068.39;;;26.03;57.71
70488;BME280;57976;48.174;16.370;2022-07-23T02:05:13;99069.55;;;26.03;58.14
70488;BME280;57976;48.174;16.370;2022-07-23T02:07:15;99063.09;;;26.02;58.13
70488;BME280;57976;48.174;16.370;2022-07-23T02:09:18;99055.36;;;26.01;58.32
70488;BME280;57976;48.174;16.370;2022-07-23T02:11:22;99049.77;;;26.01;58.61
70488;BME280;57976;48.174;16.370;2022-07-23T02:13:26;99036.13;;;26.01;59.15
70488;BME280;57976;48.174;16.370;2022-07-23T02:15:36;99028.02;;;26.02;59.40
70488;BME280;57976;48.174;16.370;2022-07-23T02:17:38;99017.70;;;26.04;59.63
70488;BME280;57976;48.174;16.370;2022-07-23T02:19:41;99008.70;;;26.06;59.27
70488;BME280;57976;48.174;16.370;2022-07-23T02:21:44;98997.86;;;26.10;59.17
70488;BME280;57976;48.174;16.370;2022-07-23T02:23:47;98990.44;;;26.13;58.99
70488;BME280;57976;48.174;16.370;2022-07-23T02:25:50;98990.44;;;26.17;58.40
70488;BME280;57976;48.174;16.370;2022-07-23T02:27:52;98999.08;;;26.23;58.32
70488;BME280;57976;48.174;16.370;2022-07-23T02:29:55;99007.00;;;26.27;58.02
70488;BME280;57976;48.174;16.370;2022-07-23T02:31:58;99005.42;;;26.34;57.85
70488;BME280;57976;48.174;16.370;2022-07-23T02:34:01;99001.38;;;26.40;57.84
70488;BME280;57976;48.174;16.370;2022-07-23T02:36:05;99000.19;;;26.46;57.36
70488;BME280;57976;48.174;16.370;2022-07-23T02:38:08;99000.74;;;26.50;57.38
70488;BME280;57976;48.174;16.370;2022-07-23T02:40:12;99001.23;;;26.54;57.17
70488;BME280;57976;48.174;16.370;2022-07-23T02:42:15;98997.46;;;26.56;57.15
70488;BME280;57976;48.174;16.370;2022-07-23T02:44:19;98990.02;;;26.59;56.87
70488;BME280;57976;48.174;16.370;2022-07-23T02:46:23;98993.31;;;26.62;57.00
70488;BME280;57976;48.174;16.370;2022-07-23T02:48:26;98994.48;;;26.65;57.10
70488;BME280;57976;48.174;16.370;2022-07-23T02:50:29;98988.16;;;26.67;57.02
70488;BME280;57976;48.174;16.370;2022-07-23T02:52:33;98991.46;;;26.68;56.88
70488;BME280;57976;48.174;16.370;2022-07-23T02:54:37;99000.35;;;26.69;56.96
70488;BME280;57976;48.174;16.370;2022-07-23T02:56:40;98997.09;;;26.70;57.03
70488;BME280;57976;48.174;16.370;2022-07-23T02:58:43;98989.21;;;26.70;57.01
70488;BME280;57976;48.174;16.370;2022-07-23T03:00:45;98983.13;;;26.71;56.84
70488;BME280;57976;48.174;16.370;2022-07-23T03:02:48;98984.44;;;26.71;56.97
70488;BME280;57976;48.174;16.370;2022-07-23T03:04:51;98990.93;;;26.75;56.99
70488;BME280;57976;48.174;16.370;2022-07-23T03:06:54;98992.80;;;26.76;56.90
70488;BME280;57976;48.174;16.370;2022-07-23T03:08:57;98993.58;;;26.78;56.90
70488;BME280;57976;48.174;16.370;2022-07-23T03:11:00;98998.27;;;26.80;56.78
70488;BME280;57976;48.174;16.370;2022-07-23T03:13:03;99010.55;;;26.83;56.70
70488;BME280;57976;48.174;16.370;2022-07-23T03:15:09;99012.98;;;26.84;56.67
70488;BME280;57976;48.174;16.370;2022-07-23T03:17:12;99007.19;;;26.84;56.68
70488;BME280;57976;48.174;16.370;2022-07-23T03:19:14;99006.77;;;26.83;56.50
70488;BME280;57976;48.174;16.370;2022-07-23T03:21:17;98999.38;;;26.84;56.55
70488;BME280;57976;48.174;16.370;2022-07-23T03:23:20;98998.03;;;26.87;56.36
70488;BME280;57976;48.174;16.370;2022-07-23T03:25:24;98996.98;;;26.89;56.46
70488;BME280;57976;48.174;16.370;2022-07-23T03:27:28;98997.52;;;26.92;55.99
70488;BME280;57976;48.174;16.370;2022-07-23T03:29:31;98998.96;;;26.95;55.89
70488;BME280;57976;48.174;16.370;2022-07-23T03:31:35;99003.75;;;26.95;55.94
70488;BME280;57976;48.174;16.370;2022-07-23T03:33:38;99004.20;;;26.96;55.83
70488;BME280;57976;48.174;16.370;2022-07-23T03:35:40;99005.06;;;26.97;55.64
70488;BME280;57976;48.174;16.370;2022-07-23T03:37:52;99011.39;;;26.99;55.60
70488;BME280;57976;48.174;16.370;2022-07-23T03:39:56;99012.41;;;27.01;55.54
70488;BME280;57976;48.174;16.370;2022-07-23T03:41:59;99013.23;;;27.03;55.44
70488;BME280;57976;48.174;16.370;2022-07-23T03:44:02;99022.35;;;27.04;55.42
70488;BME280;57976;48.174;16.370;2022-07-23T03:46:05;99029.05;;;27.04;55.40
70488;BME280;57976;48.174;16.370;2022-07-23T03:48:08;99032.33;;;27.02;55.42
70488;BME280;57976;48.174;16.370;2022-07-23T03:50:11;99037.98;;;27.02;55.43
70488;BME280;57976;48.174;16.370;2022-07-23T03:52:14;99040.58;;;27.03;55.42
70488;BME280;57976;48.174;16.370;2022-07-23T03:54:17;99038.04;;;27.04;55.39
70488;BME280;57976;48.174;16.370;2022-07-23T03:56:20;99038.39;;;27.07;55.48
70488;BME280;57976;48.174;16.370;2022-07-23T03:58:22;99039.95;;;27.08;55.61
70488;BME280;57976;48.174;16.370;2022-07-23T04:00:25;99044.59;;;27.09;55.70
70488;BME280;57976;48.174;16.370;2022-07-23T04:02:28;99048.73;;;27.09;55.84
70488;BME280;57976;48.174;16.370;2022-07-23T04:04:31;99052.59;;;27.10;55.80
70488;BME280;57976;48.174;16.370;2022-07-23T04:06:34;99056.10;;;27.10;55.97
70488;BME280;57976;48.174;16.370;2022-07-23T04:08:37;99058.69;;;27.11;55.95
70488;BME280;57976;48.174;16.370;2022-07-23T04:10:40;99062.91;;;27.13;55.98
70488;BME280;57976;48.174;16.370;2022-07-23T04:12:44;99065.05;;;27.17;55.94
70488;BME280;57976;48.174;16.370;2022-07-23T04:14:46;99063.94;;;27.19;55.84
70488;BME280;57976;48.174;16.370;2022-07-23T04:16:49;99067.23;;;27.23;55.85
70488;BME280;57976;48.174;16.370;2022-07-23T04:18:52;99065.80;;;27.27;55.71
70488;BME280;57976;48.174;16.370;2022-07-23T04:20:56;99067.23;;;27.32;55.75
70488;BME280;57976;48.174;16.370;2022-07-23T04:22:59;99072.10;;;27.37;55.62
70488;BME280;57976;48.174;16.370;2022-07-23T04:25:08;99070.07;;;27.40;55.42
70488;BME280;57976;48.174;16.370;2022-07-23T04:27:11;99069.71;;;27.42;55.43
70488;BME280;57976;48.174;16.370;2022-07-23T04:29:15;99080.08;;;27.47;55.43
70488;BME280;57976;48.174;16.370;2022-07-23T04:31:18;99075.84;;;27.52;55.37
70488;BME280;57976;48.174;16.370;2022-07-23T04:33:21;99076.64;;;27.56;55.26
70488;BME280;57976;48.174;16.370;2022-07-23T04:35:29;99071.86;;;27.60;55.17
70488;BME280;57976;48.174;16.370;2022-07-23T04:37:37;99066.08;;;27.63;54.71
70488;BME280;57976;48.174;16.370;2022-07-23T04:39:40;99061.80;;;27.66;54.40
70488;BME280;57976;48.174;16.370;2022-07-23T04:41:43;99061.31;;;27.67;54.30
70488;BME280;57976;48.174;16.370;2022-07-23T04:43:45;99070.98;;;27.68;53.91
70488;BME280;57976;48.174;16.370;2022-07-23T04:45:48;99074.87;;;27.68;53.96
70488;BME280;57976;48.174;16.370;2022-07-23T04:47:51;99075.48;;;27.67;53.61
70488;BME280;57976;48.174;16.370;2022-07-23T04:49:55;99071.64;;;27.66;53.30
70488;BME280;57976;48.174;16.370;2022-07-23T04:51:57;99070.80;;;27.63;53.10
70488;BME280;57976;48.174;16.370;2022-07-23T04:54:00;99065.84;;;27.59;52.77
70488;BME280;57976;48.174;16.370;2022-07-23T04:56:03;99067.63;;;27.55;52.72
70488;BME280;57976;48.174;16.370;2022-07-23T04:58:06;99068.39;;;27.50;52.77
70488;BME280;57976;48.174;16.370;2022-07-23T05:00:11;99063.50;;;27.43;52.91
70488;BME280;57976;48.174;16.370;2022-07-23T05:02:14;99067.43;;;27.36;53.14
70488;BME280;57976;48.174;16.370;2022-07-23T05:04:17;99064.33;;;27.29;53.25
70488;BME280;57976;48.174;16.370;2022-07-23T05:06:21;99064.65;;;27.23;53.23
70488;BME280;57976;48.174;16.370;2022-07-23T05:08:24;99061.52;;;27.19;53.41
70488;BME280;57976;48.174;16.370;2022-07-23T05:10:29;99067.02;;;27.18;53.59
70488;BME280;57976;48.174;16.370;2022-07-23T05:12:34;99070.81;;;27.16;53.48
70488;BME280;57976;48.174;16.370;2022-07-23T05:14:37;99069.30;;;27.14;53.51
70488;BME280;57976;48.174;16.370;2022-07-23T05:16:40;99074.95;;;27.13;53.60
70488;BME280;57976;48.174;16.370;2022-07-23T05:18:47;99076.11;;;27.13;53.83
70488;BME280;57976;48.174;16.370;2022-07-23T05:20:50;99076.20;;;27.11;54.09
70488;BME280;57976;48.174;16.370;2022-07-23T05:22:55;99075.52;;;27.10;54.07
70488;BME280;57976;48.174;16.370;2022-07-23T05:24:57;99076.50;;;27.10;54.32
70488;BME280;57976;48.174;16.370;2022-07-23T05:27:01;99076.86;;;27.11;54.22
70488;BME280;57976;48.174;16.370;2022-07-23T05:29:04;99079.10;;;27.13;54.31
70488;BME280;57976;48.174;16.370;2022-07-23T05:31:07;99085.04;;;27.16;54.56
70488;BME280;57976;48.174;16.370;2022-07-23T05:33:10;99088.13;;;27.15;54.47
70488;BME280;57976;48.174;16.370;2022-07-23T05:35:14;99086.99;;;27.15;54.53
70488;BME280;57976;48.174;16.370;2022-07-23T05:37:20;99090.94;;;27.18;54.48
70488;BME280;57976;48.174;16.370;2022-07-23T05:39:23;99091.09;;;27.24;54.58
70488;BME280;57976;48.174;16.370;2022-07-23T05:41:26;99085.34;;;27.27;54.51
70488;BME280;57976;48.174;16.370;2022-07-23T05:43:29;99087.96;;;27.33;54.47
70488;BME280;57976;48.174;16.370;2022-07-23T05:45:32;99089.35;;;27.41;54.48
70488;BME280;57976;48.174;16.370;2022-07-23T05:47:41;99094.05;;;27.49;54.49
70488;BME280;57976;48.174;16.370;2022-07-23T05:49:44;99094.86;;;27.57;54.47
70488;BME280;57976;48.174;16.370;2022-07-23T05:52:05;99093.35;;;27.62;54.45
70488;BME280;57976;48.174;16.370;2022-07-23T05:54:28;99100.55;;;27.64;54.64
70488;BME280;57976;48.174;16.370;2022-07-23T05:56:31;99100.25;;;27.67;54.59
70488;BME280;57976;48.174;16.370;2022-07-23T05:58:33;99106.92;;;27.67;54.91
70488;BME280;57976;48.174;16.370;2022-07-23T06:00:37;99103.54;;;27.65;54.87
70488;BME280;57976;48.174;16.370;2022-07-23T06:02:40;99115.77;;;27.64;55.14
70488;BME280;57976;48.174;16.370;2022-07-23T06:04:47;99119.18;;;27.64;55.08
70488;BME280;57976;48.174;16.370;2022-07-23T06:06:57;99122.20;;;27.63;55.01
70488;BME280;57976;48.174;16.370;2022-07-23T06:09:00;99118.54;;;27.63;55.07
70488;BME280;57976;48.174;16.370;2022-07-23T06:11:03;99117.16;;;27.67;54.84
70488;BME280;57976;48.174;16.370;2022-07-23T06:13:06;99109.45;;;27.71;54.81
70488;BME280;57976;48.174;16.370;2022-07-23T06:15:10;99106.41;;;27.73;54.48
70488;BME280;57976;48.174;16.370;2022-07-23T06:17:13;99107.46;;;27.75;54.52
70488;BME280;57976;48.174;16.370;2022-07-23T06:19:16;99110.73;;;27.80;54.55
70488;BME280;57976;48.174;16.370;2022-07-23T06:21:19;99107.55;;;27.83;54.45
70488;BME280;57976;48.174;16.370;2022-07-23T06:23:42;99112.27;;;27.87;54.41
70488;BME280;57976;48.174;16.370;2022-07-23T06:25:45;99111.77;;;27.87;54.50
70488;BME280;57976;48.174;16.370;2022-07-23T06:27:47;99111.20;;;27.88;54.49
70488;BME280;57976;48.174;16.370;2022-07-23T06:29:50;99108.81;;;27.92;54.59
70488;BME280;57976;48.174;16.370;2022-07-23T06:31:52;99106.19;;;27.99;54.58
70488;BME280;57976;48.174;16.370;2022-07-23T06:33:56;99103.35;;;28.01;54.68
70488;BME280;57976;48.174;16.370;2022-07-23T06:35:59;99098.88;;;28.08;54.60
70488;BME280;57976;48.174;16.370;2022-07-23T06:38:02;99100.05;;;28.14;54.26
70488;BME280;57976;48.174;16.370;2022-07-23T06:40:07;99097.05;;;28.19;54.22
70488;BME280;57976;48.174;16.370;2022-07-23T06:42:11;99091.52;;;28.19;53.77
70488;BME280;57976;48.174;16.370;2022-07-23T06:44:18;99083.31;;;28.22;53.51
70488;BME280;57976;48.174;16.370;2022-07-23T06:46:23;99086.47;;;28.26;53.06
70488;BME280;57976;48.174;16.370;2022-07-23T06:48:26;99079.70;;;28.34;52.63
70488;BME280;57976;48.174;16.370;2022-07-23T06:50:28;99074.55;;;28.44;52.40
70488;BME280;57976;48.174;16.370;2022-07-23T06:52:31;99083.14;;;28.56;51.63
70488;BME280;57976;48.174;16.370;2022-07-23T06:54:34;99080.12;;;28.64;51.00
70488;BME280;57976;48.174;16.370;2022-07-23T06:56:37;99085.27;;;28.70;50.58
70488;BME280;57976;48.174;16.370;2022-07-23T06:58:40;99084.05;;;28.74;50.32
70488;BME280;57976;48.174;16.370;2022-07-23T07:00:43;99087.14;;;28.77;49.67
70488;BME280;57976;48.174;16.370;2022-07-23T07:02:45;99086.74;;;28.80;50.11
70488;BME280;57976;48.174;16.370;2022-07-23T07:04:49;99089.34;;;28.86;49.64
70488;BME280;57976;48.174;16.370;2022-07-23T07:06:51;99088.95;;;28.89;49.28
70488;BME280;57976;48.174;16.370;2022-07-23T07:08:54;99090.77;;;28.95;49.02
70488;BME280;57976;48.174;16.370;2022-07-23T07:10:57;99088.46;;;29.03;48.14
70488;BME280;57976;48.174;16.370;2022-07-23T07:12:59;99084.39;;;29.13;47.41
70488;BME280;57976;48.174;16.370;2022-07-23T07:15:02;99087.42;;;29.19;47.11
70488;BME280;57976;48.174;16.370;2022-07-23T07:17:05;99088.27;;;29.27;46.76
70488;BME280;57976;48.174;16.370;2022-07-23T07:19:07;99089.88;;;29.31;46.37
70488;BME280;57976;48.174;16.370;2022-07-23T07:21:11;99091.80;;;29.36;46.29
70488;BME280;57976;48.174;16.370;2022-07-23T07:23:13;99099.27;;;29.44;46.04
70488;BME280;57976;48.174;16.370;2022-07-23T07:25:18;99102.57;;;29.51;46.10
70488;BME280;57976;48.174;16.370;2022-07-23T07:27:21;99100.24;;;29.58;45.85
70488;BME280;57976;48.174;16.370;2022-07-23T07:29:24;99098.10;;;29.65;45.73
70488;BME280;57976;48.174;16.370;2022-07-23T07:31:26;99098.63;;;29.69;45.66
70488;BME280;57976;48.174;16.370;2022-07-23T07:33:29;99102.16;;;29.72;45.63
70488;BME280;57976;48.174;16.370;2022-07-23T07:35:32;99102.89;;;29.76;45.48
70488;BME280;57976;48.174;16.370;2022-07-23T07:37:35;99104.24;;;29.82;45.43
70488;BME280;57976;48.174;16.370;2022-07-23T07:39:38;99107.02;;;29.85;44.94
70488;BME280;57976;48.174;16.370;2022-07-23T07:41:41;99104.44;;;29.87;44.71
70488;BME280;57976;48.174;16.370;2022-07-23T07:43:43;99116.98;;;29.89;44.44
70488;BME280;57976;48.174;16.370;2022-07-23T07:45:47;99108.00;;;29.92;44.27
70488;BME280;57976;48.174;16.370;2022-07-23T07:47:50;99112.98;;;29.96;44.56
70488;BME280;57976;48.174;16.370;2022-07-23T07:49:53;99112.00;;;29.98;44.33
70488;BME280;57976;48.174;16.370;2022-07-23T07:51:55;99113.42;;;29.97;44.33
70488;BME280;57976;48.174;16.370;2022-07-23T07:53:58;99112.73;;;29.97;44.11
70488;BME280;57976;48.174;16.370;2022-07-23T07:56:04;99116.75;;;30.02;44.10
70488;BME280;57976;48.174;16.370;2022-07-23T07:58:07;99120.88;;;30.05;43.84
70488;BME280;57976;48.174;16.370;2022-07-23T08:00:11;99113.91;;;30.07;43.72
70488;BME280;57976;48.174;16.370;2022-07-23T08:02:14;99117.04;;;30.11;43.39
70488;BME280;57976;48.174;16.370;2022-07-23T08:04:17;99115.64;;;30.17;43.48
70488;BME280;57976;48.174;16.370;2022-07-23T08:06:20;99115.17;;;30.23;43.29
70488;BME280;57976;48.174;16.370;2022-07-23T08:08:23;99107.30;;;30.31;43.44
70488;BME280;57976;48.174;16.370;2022-07-23T08:10:27;99111.24;;;30.41;43.28
70488;BME280;57976;48.174;16.370;2022-07-23T08:12:39;99110.17;;;30.52;42.88
70488;BME280;57976;48.174;16.370;2022-07-23T08:14:42;99109.77;;;30.54;42.90
70488;BME280;57976;48.174;16.370;2022-07-23T08:16:45;99110.44;;;30.55;43.14
70488;BME280;57976;48.174;16.370;2022-07-23T08:19:08;99112.95;;;30.57;42.79
70488;BME280;57976;48.174;16.370;2022-07-23T08:21:11;99115.59;;;30.59;42.84
70488;BME280;57976;48.174;16.370;2022-07-23T08:23:13;99117.02;;;30.61;42.97
70488;BME280;57976;48.174;16.370;2022-07-23T08:25:20;99117.20;;;30.70;42.66
70488;BME280;57976;48.174;16.370;2022-07-23T08:27:23;99111.44;;;30.81;42.69
70488;BME280;57976;48.174;16.370;2022-07-23T08:29:26;99111.87;;;30.92;42.62
70488;BME280;57976;48.174;16.370;2022-07-23T08:31:30;99108.35;;;31.06;42.62
70488;BME280;57976;48.174;16.370;2022-07-23T08:33:32;99107.85;;;31.16;42.19
70488;BME280;57976;48.174;16.370;2022-07-23T08:35:38;99112.73;;;31.19;41.97
70488;BME280;57976;48.174;16.370;2022-07-23T08:37:41;99113.99;;;31.19;42.14
70488;BME280;57976;48.174;16.370;2022-07-23T08:39:44;99112.84;;;31.20;42.31
70488;BME280;57976;48.174;16.370;2022-07-23T08:41:46;99113.27;;;31.25;42.14
70488;BME280;57976;48.174;16.370;2022-07-23T08:43:49;99112.27;;;31.28;41.76
70488;BME280;57976;48.174;16.370;2022-07-23T08:45:54;99118.91;;;31.27;41.90
70488;BME280;57976;48.174;16.370;2022-07-23T08:47:57;99116.46;;;31.29;41.62
70488;BME280;57976;48.174;16.370;2022-07-23T08:50:01;99116.02;;;31.25;41.31
70488;BME280;57976;48.174;16.370;2022-07-23T08:52:06;99109.31;;;31.15;41.46
70488;BME280;57976;48.174;16.370;2022-07-23T08:54:09;99124.91;;;31.07;41.38
70488;BME280;57976;48.174;16.370;2022-07-23T08:56:12;99112.86;;;31.02;41.39
70488;BME280;57976;48.174;16.370;2022-07-23T08:58:15;99116.63;;;31.00;41.51
70488;BME280;57976;48.174;16.370;2022-07-23T09:00:20;99113.74;;;31.00;41.37
70488;BME280;57976;48.174;16.370;2022-07-23T09:02:23;99105.16;;;31.04;41.42
70488;BME280;57976;48.174;16.370;2022-07-23T09:04:26;99110.54;;;31.14;41.32
70488;BME280;57976;48.174;16.370;2022-07-23T09:06:29;99113.92;;;31.21;40.42
70488;BME280;57976;48.174;16.370;2022-07-23T09:08:37;99115.15;;;31.25;40.58
70488;BME280;57976;48.174;16.370;2022-07-23T09:10:48;99113.71;;;31.29;40.12
70488;BME280;57976;48.174;16.370;2022-07-23T09:12:51;99112.01;;;31.35;40.17
70488;BME280;57976;48.174;16.370;2022-07-23T09:14:54;99115.06;;;31.41;40.22
70488;BME280;57976;48.174;16.370;2022-07-23T09:16:57;99113.44;;;31.44;40.17
70488;BME280;57976;48.174;16.370;2022-07-23T09:19:10;99115.47;;;31.49;40.24
70488;BME280;57976;48.174;16.370;2022-07-23T09:21:15;99121.09;;;31.51;40.12
70488;BME280;57976;48.174;16.370;2022-07-23T09:23:18;99114.10;;;31.50;40.28
70488;BME280;57976;48.174;16.370;2022-07-23T09:25:21;99122.03;;;31.49;40.05
70488;BME280;57976;48.174;16.370;2022-07-23T09:27:52;99110.13;;;31.46;39.73
70488;BME280;57976;48.174;16.370;2022-07-23T09:29:57;99115.99;;;31.41;40.29
70488;BME280;57976;48.174;16.370;2022-07-23T09:32:01;99105.66;;;31.38;40.37
70488;BME280;57976;48.174;16.370;2022-07-23T09:34:12;99105.77;;;31.39;40.27
70488;BME280;57976;48.174;16.370;2022-07-23T09:36:16;99095.72;;;31.43;40.31
70488;BME280;57976;48.174;16.370;2022-07-23T09:38:29;99095.13;;;31.52;39.96
70488;BME280;57976;48.174;16.370;2022-07-23T09:40:31;99096.46;;;31.59;40.07
70488;BME280;57976;48.174;16.370;2022-07-23T09:42:34;99093.14;;;31.66;40.07
70488;BME280;57976;48.174;16.370;2022-07-23T09:44:41;99093.54;;;31.73;39.86
70488;BME280;57976;48.174;16.370;2022-07-23T09:46:47;99090.35;;;31.79;39.70
70488;BME280;57976;48.174;16.370;2022-07-23T09:48:50;99088.27;;;31.89;39.82
70488;BME280;57976;48.174;16.370;2022-07-23T09:51:02;99082.98;;;31.95;39.80
70488;BME280;57976;48.174;16.370;2022-07-23T09:53:06;99084.50;;;32.03;39.57
70488;BME280;57976;48.174;16.370;2022-07-23T09:55:11;99083.73;;;32.04;39.88
70488;BME280;57976;48.174;16.370;2022-07-23T09:57:14;99082.75;;;32.02;39.81
70488;BME280;57976;48.174;16.370;2022-07-23T09:59:17;99079.68;;;32.05;39.85
70488;BME280;57976;48.174;16.370;2022-07-23T10:01:21;99080.38;;;32.10;39.69
70488;BME280;57976;48.174;16.370;2022-07-23T10:03:24;99087.65;;;32.16;39.41
70488;BME280;57976;48.174;16.370;2022-07-23T10:05:46;99089.84;;;32.15;39.07
70488;BME280;57976;48.174;16.370;2022-07-23T10:08:02;99089.64;;;32.12;38.99
70488;BME280;57976;48.174;16.370;2022-07-23T10:10:32;99084.63;;;32.07;39.34
70488;BME280;57976;48.174;16.370;2022-07-23T10:12:55;99082.48;;;32.07;39.54
70488;BME280;57976;48.174;16.370;2022-07-23T10:14:59;99081.05;;;32.07;39.68
70488;BME280;57976;48.174;16.370;2022-07-23T10:17:02;99086.15;;;32.08;39.53
70488;BME280;57976;48.174;16.370;2022-07-23T10:19:05;99079.94;;;32.08;39.74
70488;BME280;57976;48.174;16.370;2022-07-23T10:21:09;99084.09;;;32.10;39.33
70488;BME280;57976;48.174;16.370;2022-07-23T10:23:16;99079.41;;;32.14;39.27
70488;BME280;57976;48.174;16.370;2022-07-23T10:25:26;99076.54;;;32.16;39.93
70488;BME280;57976;48.174;16.370;2022-07-23T10:27:52;99069.91;;;32.18;40.10
70488;BME280;57976;48.174;16.370;2022-07-23T10:30:02;99069.85;;;32.24;40.29
70488;BME280;57976;48.174;16.370;2022-07-23T10:32:14;99068.31;;;32.28;39.73
70488;BME280;57976;48.174;16.370;2022-07-23T10:34:27;99076.33;;;32.30;39.84
70488;BME280;57976;48.174;16.370;2022-07-23T10:36:40;99074.42;;;32.33;39.82
70488;BME280;57976;48.174;16.370;2022-07-23T10:38:51;99079.73;;;32.36;39.44
70488;BME280;57976;48.174;16.370;2022-07-23T10:40:56;99074.89;;;32.40;38.40
70488;BME280;57976;48.174;16.370;2022-07-23T10:43:00;99074.71;;;32.39;38.60
70488;BME280;57976;48.174;16.370;2022-07-23T10:45:26;99077.23;;;32.40;38.63
70488;BME280;57976;48.174;16.370;2022-07-23T10:47:30;99080.20;;;32.43;38.86
70488;BME280;57976;48.174;16.370;2022-07-23T10:49:33;99076.02;;;32.49;39.23
70488;BME280;57976;48.174;16.370;2022-07-23T10:51:36;99076.40;;;32.50;39.16
70488;BME280;57976;48.174;16.370;2022-07-23T10:53:56;99081.64;;;32.47;38.65
70488;BME280;57976;48.174;16.370;2022-07-23T10:55:59;99086.72;;;32.38;38.54
70488;BME280;57976;48.174;16.370;2022-07-23T10:58:04;99072.45;;;32.29;38.80
70488;BME280;57976;48.174;16.370;2022-07-23T11:00:22;99075.48;;;32.26;39.07
70488;BME280;57976;48.174;16.370;2022-07-23T11:02:26;99065.42;;;32.24;39.18
70488;BME280;57976;48.174;16.370;2022-07-23T11:04:50;99060.30;;;32.24;39.29
70488;BME280;57976;48.174;16.370;2022-07-23T11:07:13;99061.15;;;32.34;39.41
70488;BME280;57976;48.174;16.370;2022-07-23T11:09:27;99060.86;;;32.43;39.39
70488;BME280;57976;48.174;16.370;2022-07-23T11:11:30;99067.23;;;32.47;39.15
70488;BME280;57976;48.174;16.370;2022-07-23T11:13:37;99056.27;;;32.49;39.09
70488;BME280;57976;48.174;16.370;2022-07-23T11:16:04;99051.70;;;32.58;39.14
70488;BME280;57976;48.174;16.370;2022-07-23T11:18:07;99050.30;;;32.76;39.01
70488;BME280;57976;48.174;16.370;2022-07-23T11:20:21;99050.17;;;32.90;39.03
70488;BME280;57976;48.174;16.370;2022-07-23T11:24:50;99044.63;;;33.09;39.18
70488;BME280;57976;48.174;16.370;2022-07-23T11:27:03;99036.22;;;33.16;39.24
70488;BME280;57976;48.174;16.370;2022-07-23T11:31:52;99028.54;;;33.25;38.90
70488;BME280;57976;48.174;16.370;2022-07-23T11:34:24;99023.89;;;33.25;38.98
70488;BME280;57976;48.174;16.370;2022-07-23T11:36:49;99027.55;;;33.32;38.90
70488;BME280;57976;48.174;16.370;2022-07-23T11:38:54;99023.21;;;33.36;39.08
70488;BME280;57976;48.174;16.370;2022-07-23T11:40:58;99026.36;;;33.39;38.89
70488;BME280;57976;48.174;16.370;2022-07-23T11:43:02;99023.96;;;33.41;38.74
70488;BME280;57976;48.174;16.370;2022-07-23T11:45:07;99037.74;;;33.40;38.51
70488;BME280;57976;48.174;16.370;2022-07-23T11:47:11;99032.98;;;33.35;38.68
70488;BME280;57976;48.174;16.370;2022-07-23T11:49:14;99035.52;;;33.29;38.69
70488;BME280;57976;48.174;16.370;2022-07-23T11:51:25;99030.63;;;33.23;39.22
70488;BME280;57976;48.174;16.370;2022-07-23T11:53:30;99023.83;;;33.19;39.26
70488;BME280;57976;48.174;16.370;2022-07-23T11:55:33;99021.07;;;33.23;39.58
70488;BME280;57976;48.174;16.370;2022-07-23T11:57:37;99022.22;;;33.31;39.42
70488;BME280;57976;48.174;16.370;2022-07-23T11:59:41;99025.88;;;33.42;39.43